createdAt,value
2023-02-05T00:01:24.966Z,69.43
2023-02-05T00:03:51.658Z,69.20
2023-02-05T00:06:18.422Z,68.95
2023-02-05T00:08:44.961Z,68.75
2023-02-05T00:11:11.439Z,69.11
2023-02-05T00:13:40.840Z,69.58
2023-02-05T00:16:17.594Z,69.73
2023-02-05T00:18:44.937Z,70.33
2023-02-05T00:21:13.323Z,70.15
2023-02-05T00:23:40.683Z,69.88
2023-02-05T00:26:08.156Z,69.24
2023-02-05T00:28:36.640Z,68.64
2023-02-05T00:31:10.377Z,69.07
2023-02-05T00:33:37.109Z,69.38
2023-02-05T00:36:08.572Z,68.53
2023-02-05T00:38:36.250Z,68.19
2023-02-05T00:41:03.967Z,67.76
2023-02-05T00:43:31.007Z,68.62
2023-02-05T00:45:57.530Z,69.06
2023-02-05T00:48:24.076Z,69.27
2023-02-05T00:50:52.371Z,69.26
2023-02-05T00:53:21.425Z,68.69
2023-02-05T00:55:48.257Z,68.68
2023-02-05T00:58:15.704Z,69.45
2023-02-05T01:00:42.514Z,69.66
2023-02-05T01:03:09.504Z,69.08
2023-02-05T01:05:38.376Z,68.95
2023-02-05T01:08:07.477Z,68.66
2023-02-05T01:10:34.752Z,68.17
2023-02-05T01:13:01.264Z,68.28
2023-02-05T01:15:27.772Z,68.84
2023-02-05T01:17:54.337Z,68.42
2023-02-05T01:20:21.698Z,67.92
2023-02-05T01:22:48.253Z,67.80
2023-02-05T01:25:14.751Z,68.11
2023-02-05T01:27:41.280Z,68.83
2023-02-05T01:30:08.857Z,69.00
2023-02-05T01:32:35.570Z,68.72
2023-02-05T01:35:02.017Z,68.55
2023-02-05T01:37:28.465Z,68.50
2023-02-05T01:39:54.979Z,69.30
2023-02-05T01:42:32.622Z,69.10
2023-02-05T01:45:23.652Z,70.12
2023-02-05T01:47:58.325Z,69.61
2023-02-05T01:50:48.310Z,69.04
2023-02-05T01:53:31.172Z,69.10
2023-02-05T01:56:06.137Z,69.06
2023-02-05T01:58:42.477Z,69.42
2023-02-05T02:01:09.141Z,69.33
2023-02-05T02:03:36.385Z,69.10
2023-02-05T02:06:04.733Z,68.88
2023-02-05T02:08:32.821Z,68.44
2023-02-05T02:11:05.508Z,69.38
2023-02-05T02:13:36.802Z,69.09
2023-02-05T02:16:05.535Z,68.69
2023-02-05T02:18:36.313Z,68.71
2023-02-05T02:21:40.961Z,69.10
2023-02-05T02:24:40.187Z,70.06
2023-02-05T02:27:35.864Z,69.65
2023-02-05T02:30:40.765Z,69.31
2023-02-05T02:33:17.265Z,68.21
2023-02-05T02:35:54.793Z,68.18
2023-02-05T02:38:34.709Z,67.83
2023-02-05T02:41:23.963Z,68.28
2023-02-05T02:43:57.253Z,68.17
2023-02-05T02:46:54.100Z,67.89
2023-02-05T02:49:31.740Z,68.28
2023-02-05T02:52:04.823Z,68.53
2023-02-05T02:54:36.153Z,68.40
2023-02-05T02:57:09.289Z,68.31
2023-02-05T02:59:40.311Z,67.94
2023-02-05T03:02:12.703Z,68.19
2023-02-05T03:04:55.480Z,68.00
2023-02-05T03:07:47.716Z,68.54
2023-02-05T03:10:26.762Z,69.19
2023-02-05T03:12:56.070Z,69.18
2023-02-05T03:15:22.651Z,69.32
2023-02-05T03:17:53.119Z,69.07
2023-02-05T03:20:28.160Z,69.07
2023-02-05T03:22:56.378Z,69.67
2023-02-05T03:25:27.988Z,69.84
2023-02-05T03:27:55.500Z,69.60
2023-02-05T03:30:31.001Z,69.01
2023-02-05T03:33:40.832Z,69.22
2023-02-05T03:36:25.131Z,69.40
2023-02-05T03:39:23.706Z,69.04
2023-02-05T03:42:06.262Z,68.75
2023-02-05T03:45:07.936Z,68.51
2023-02-05T03:48:04.934Z,68.88
2023-02-05T03:50:49.122Z,68.61
2023-02-05T03:53:38.622Z,69.07
2023-02-05T03:56:18.345Z,68.98
2023-02-05T03:58:53.653Z,68.54
2023-02-05T04:01:20.928Z,68.38
2023-02-05T04:03:47.956Z,68.26
2023-02-05T04:06:14.727Z,68.00
2023-02-05T04:08:43.859Z,68.04
2023-02-05T04:11:12.546Z,68.05
2023-02-05T04:13:39.067Z,68.11
2023-02-05T04:16:05.706Z,67.92
2023-02-05T04:18:32.170Z,67.42
2023-02-05T04:20:59.883Z,67.48
2023-02-05T04:23:26.354Z,68.25
2023-02-05T04:25:54.209Z,68.61
2023-02-05T04:28:21.129Z,68.37
2023-02-05T04:30:47.697Z,68.60
2023-02-05T04:33:14.213Z,68.67
2023-02-05T04:35:40.691Z,68.85
2023-02-05T04:38:07.183Z,68.86
2023-02-05T04:40:33.723Z,68.67
2023-02-05T04:43:00.179Z,68.60
2023-02-05T04:45:30.759Z,68.20
2023-02-05T04:47:59.401Z,68.29
2023-02-05T04:50:26.713Z,68.16
2023-02-05T04:52:53.428Z,68.41
2023-02-05T04:55:20.020Z,68.97
2023-02-05T04:57:46.466Z,68.82
2023-02-05T05:00:13.874Z,68.71
2023-02-05T05:02:40.490Z,68.84
2023-02-05T05:05:07.277Z,68.44
2023-02-05T05:07:33.780Z,68.34
2023-02-05T05:10:00.228Z,67.88
2023-02-05T05:12:26.657Z,67.89
2023-02-05T05:14:54.238Z,68.21
2023-02-05T05:17:20.722Z,69.27
2023-02-05T05:19:47.152Z,69.39
2023-02-05T05:22:13.618Z,69.01
2023-02-05T05:24:40.092Z,68.75
2023-02-05T05:27:06.621Z,68.34
2023-02-05T05:29:33.127Z,68.08
2023-02-05T05:31:59.671Z,67.80
2023-02-05T05:34:26.238Z,67.94
2023-02-05T05:36:53.419Z,68.12
2023-02-05T05:39:38.580Z,68.38
2023-02-05T05:42:23.963Z,69.55
2023-02-05T05:44:52.124Z,69.30
2023-02-05T05:47:19.405Z,68.52
2023-02-05T05:49:46.489Z,68.06
2023-02-05T05:52:13.720Z,68.01
2023-02-05T05:54:40.456Z,68.14
2023-02-05T05:57:08.171Z,67.93
2023-02-05T05:59:34.994Z,67.89
2023-02-05T06:02:02.964Z,67.83
2023-02-05T06:04:30.221Z,68.19
2023-02-05T06:06:57.247Z,68.60
2023-02-05T06:09:23.922Z,68.94
2023-02-05T06:11:51.090Z,68.43
2023-02-05T06:14:17.576Z,68.58
2023-02-05T06:16:44.050Z,68.60
2023-02-05T06:19:10.499Z,68.41
2023-02-05T06:21:36.972Z,68.91
2023-02-05T06:24:03.666Z,69.49
2023-02-05T06:26:30.121Z,70.01
2023-02-05T06:29:03.069Z,70.14
2023-02-05T06:31:31.675Z,70.37
2023-02-05T06:33:58.194Z,70.67
2023-02-05T06:36:25.131Z,70.71
2023-02-05T06:38:51.615Z,70.03
2023-02-05T06:41:18.205Z,69.94
2023-02-05T06:43:45.007Z,69.45
2023-02-05T06:46:11.556Z,69.64
2023-02-05T06:48:38.110Z,70.53
2023-02-05T06:51:04.919Z,71.17
2023-02-05T06:53:31.391Z,71.04
2023-02-05T06:55:59.191Z,70.04
2023-02-05T06:58:25.728Z,69.70
2023-02-05T07:00:52.183Z,69.57
2023-02-05T07:03:18.686Z,69.32
2023-02-05T07:05:45.131Z,70.04
2023-02-05T07:08:11.675Z,69.87
2023-02-05T07:10:38.320Z,69.52
2023-02-05T07:13:05.989Z,69.59
2023-02-05T07:15:35.300Z,69.36
2023-02-05T07:18:02.032Z,69.29
2023-02-05T07:20:28.615Z,69.34
2023-02-05T07:22:55.056Z,69.23
2023-02-05T07:25:21.531Z,68.90
2023-02-05T07:27:48.061Z,68.52
2023-02-05T07:30:15.234Z,68.36
2023-02-05T07:32:41.701Z,68.29
2023-02-05T07:35:08.328Z,68.54
2023-02-05T07:37:37.313Z,69.31
2023-02-05T07:40:04.263Z,69.48
2023-02-05T07:42:31.650Z,69.08
2023-02-05T07:44:58.172Z,69.24
2023-02-05T07:47:24.645Z,69.91
2023-02-05T07:49:51.135Z,70.49
2023-02-05T07:52:17.674Z,71.08
2023-02-05T07:54:44.113Z,70.90
2023-02-05T07:57:10.618Z,71.48
2023-02-05T07:59:37.100Z,71.26
2023-02-05T08:02:04.169Z,70.87
2023-02-05T08:04:30.831Z,71.48
2023-02-05T08:06:57.339Z,71.05
2023-02-05T08:09:23.824Z,70.73
2023-02-05T08:11:50.313Z,70.11
2023-02-05T08:14:16.809Z,69.74
2023-02-05T08:16:43.318Z,69.53
2023-02-05T08:19:16.666Z,69.71
2023-02-05T08:21:43.907Z,69.97
2023-02-05T08:24:10.711Z,69.46
2023-02-05T08:26:37.234Z,69.44
2023-02-05T08:29:03.891Z,69.15
2023-02-05T08:31:30.441Z,69.24
2023-02-05T08:33:59.876Z,69.79
2023-02-05T08:36:28.459Z,69.84
2023-02-05T08:38:54.930Z,69.62
2023-02-05T08:41:21.990Z,69.48
2023-02-05T08:43:50.693Z,69.15
2023-02-05T08:46:24.520Z,68.91
2023-02-05T08:48:51.379Z,69.08
2023-02-05T08:51:22.912Z,68.60
2023-02-05T08:53:49.942Z,68.62
2023-02-05T08:56:19.226Z,68.30
2023-02-05T08:58:46.667Z,68.51
2023-02-05T09:01:17.011Z,68.69
2023-02-05T09:03:44.291Z,68.72
2023-02-05T09:06:15.017Z,69.37
2023-02-05T09:08:42.631Z,69.13
2023-02-05T09:11:09.201Z,68.85
2023-02-05T09:13:36.188Z,69.13
2023-02-05T09:16:02.819Z,68.95
2023-02-05T09:18:29.348Z,68.47
2023-02-05T09:20:56.781Z,68.43
2023-02-05T09:23:23.284Z,68.24
2023-02-05T09:25:49.763Z,68.48
2023-02-05T09:28:16.429Z,68.51
2023-02-05T09:30:45.983Z,68.68
2023-02-05T09:33:14.156Z,69.26
2023-02-05T09:35:42.062Z,69.67
2023-02-05T09:38:12.672Z,70.37
2023-02-05T09:40:59.725Z,71.23
2023-02-05T09:44:21.003Z,71.89
2023-02-05T09:47:01.418Z,71.56
2023-02-05T09:49:38.084Z,70.58
2023-02-05T09:52:14.838Z,71.44
2023-02-05T09:54:47.614Z,70.40
2023-02-05T09:57:21.408Z,69.75
2023-02-05T09:59:48.294Z,69.75
2023-02-05T10:02:49.829Z,69.80
2023-02-05T10:05:20.930Z,70.13
2023-02-05T10:08:10.891Z,69.94
2023-02-05T10:10:47.682Z,70.38
2023-02-05T10:13:40.829Z,70.43
2023-02-05T10:16:37.509Z,70.15
2023-02-05T10:19:25.185Z,70.61
2023-02-05T10:22:20.527Z,71.00
2023-02-05T10:25:24.854Z,70.73
2023-02-05T10:28:24.579Z,70.59
2023-02-05T10:31:05.197Z,70.26
2023-02-05T10:33:41.556Z,70.00
2023-02-05T10:36:11.458Z,69.90
2023-02-05T10:38:46.264Z,69.65
2023-02-05T10:41:42.885Z,70.28
2023-02-05T10:44:26.528Z,69.98
2023-02-05T10:47:19.676Z,69.87
2023-02-05T10:49:56.320Z,70.00
2023-02-05T10:52:22.913Z,71.25
2023-02-05T10:54:50.770Z,71.16
2023-02-05T10:57:23.362Z,71.17
2023-02-05T10:59:56.524Z,69.58
2023-02-05T11:02:38.159Z,69.54
2023-02-05T11:05:19.633Z,69.50
2023-02-05T11:07:50.518Z,69.33
2023-02-05T11:10:28.254Z,68.36
2023-02-05T11:13:01.953Z,69.74
2023-02-05T11:15:32.585Z,68.98
2023-02-05T11:18:07.132Z,69.00
2023-02-05T11:20:38.833Z,69.35
2023-02-05T11:23:19.580Z,68.92
2023-02-05T11:26:01.659Z,70.20
2023-02-05T11:28:39.695Z,70.60
2023-02-05T11:31:27.990Z,70.30
2023-02-05T11:34:15.484Z,69.98
2023-02-05T11:36:56.032Z,70.17
2023-02-05T11:39:36.427Z,70.42
2023-02-05T11:42:23.790Z,69.76
2023-02-05T11:44:56.463Z,70.45
2023-02-05T11:47:35.806Z,69.85
2023-02-05T11:50:06.033Z,69.64
2023-02-05T11:52:37.722Z,67.89
2023-02-05T11:55:06.443Z,68.86
2023-02-05T11:57:38.812Z,69.80
2023-02-05T12:00:08.189Z,69.77
2023-02-05T12:02:38.358Z,69.78
2023-02-05T12:05:23.821Z,68.84
2023-02-05T12:08:22.052Z,68.46
2023-02-05T12:11:26.146Z,68.09
2023-02-05T12:14:02.028Z,67.98
2023-02-05T12:16:53.557Z,67.08
2023-02-05T12:19:33.896Z,67.91
2023-02-05T12:22:00.443Z,67.74
2023-02-05T12:24:45.031Z,66.72
2023-02-05T12:28:03.219Z,67.83
2023-02-05T12:30:57.953Z,67.72
2023-02-05T12:33:46.698Z,68.02
2023-02-05T12:36:48.231Z,66.33
2023-02-05T12:39:41.805Z,68.19
2023-02-05T12:42:35.532Z,69.13
2023-02-05T12:45:17.189Z,68.23
2023-02-05T12:48:38.957Z,69.16
2023-02-05T12:51:32.517Z,70.16
2023-02-05T12:54:30.324Z,69.49
2023-02-05T12:57:05.899Z,69.49
2023-02-05T12:59:38.637Z,68.61
2023-02-05T13:02:24.926Z,68.54
2023-02-05T13:05:23.789Z,66.87
2023-02-05T13:08:42.645Z,67.62
2023-02-05T13:11:39.824Z,67.69
2023-02-05T13:14:21.899Z,68.46
2023-02-05T13:17:06.507Z,68.33
2023-02-05T13:19:47.929Z,68.16
2023-02-05T13:22:54.328Z,67.28
2023-02-05T13:25:45.143Z,67.32
2023-02-05T13:28:40.025Z,67.65
2023-02-05T13:31:24.430Z,67.86
2023-02-05T13:33:55.124Z,67.52
2023-02-05T13:36:24.390Z,67.88
2023-02-05T13:39:13.416Z,67.31
2023-02-05T13:42:25.654Z,67.59
2023-02-05T13:45:17.136Z,68.47
2023-02-05T13:48:35.233Z,67.90
2023-02-05T13:51:42.957Z,68.67
2023-02-05T13:55:04.865Z,69.05
2023-02-05T13:57:46.635Z,70.26
2023-02-05T14:00:16.481Z,69.81
2023-02-05T14:02:49.434Z,70.21
2023-02-05T14:05:29.374Z,70.00
2023-02-05T14:08:01.806Z,69.82
2023-02-05T14:10:40.541Z,69.89
2023-02-05T14:13:34.396Z,69.91
2023-02-05T14:16:26.581Z,69.58
2023-02-05T14:19:01.984Z,69.70
2023-02-05T14:21:31.416Z,70.01
2023-02-05T14:24:03.552Z,69.83
2023-02-05T14:26:48.041Z,69.56
2023-02-05T14:29:45.881Z,70.27
2023-02-05T14:32:28.457Z,70.41
2023-02-05T14:35:02.342Z,70.67
2023-02-05T14:37:40.712Z,68.98
2023-02-05T14:40:21.114Z,66.74
2023-02-05T14:42:48.338Z,66.74
2023-02-05T14:45:17.325Z,68.41
2023-02-05T14:47:44.934Z,68.22
2023-02-05T14:50:27.779Z,66.92
2023-02-05T14:53:03.769Z,68.74
2023-02-05T14:55:43.251Z,67.47
2023-02-05T14:58:28.276Z,66.14
2023-02-05T15:01:32.946Z,65.35
2023-02-05T15:04:05.298Z,67.01
2023-02-05T15:06:41.535Z,66.60
2023-02-05T15:09:26.091Z,67.66
2023-02-05T15:12:51.387Z,68.24
2023-02-05T15:15:28.910Z,68.93
2023-02-05T15:18:09.326Z,68.57
2023-02-05T15:20:40.277Z,68.02
2023-02-05T15:23:21.688Z,67.40
2023-02-05T15:26:44.973Z,67.02
2023-02-05T15:29:42.351Z,67.91
2023-02-05T15:32:25.490Z,68.09
2023-02-05T15:35:02.491Z,67.77
2023-02-05T15:37:38.440Z,68.21
2023-02-05T15:40:30.899Z,68.41
2023-02-05T15:43:20.355Z,67.57
2023-02-05T15:45:47.414Z,67.70
2023-02-05T15:48:22.448Z,67.76
2023-02-05T15:50:54.765Z,68.05
2023-02-05T15:54:01.763Z,67.82
2023-02-05T15:56:52.056Z,67.72
2023-02-05T15:59:26.607Z,68.03
2023-02-05T16:02:20.367Z,68.31
2023-02-05T16:05:07.397Z,68.24
2023-02-05T16:07:42.503Z,68.18
2023-02-05T16:10:26.303Z,68.20
2023-02-05T16:13:04.733Z,68.63
2023-02-05T16:15:42.295Z,68.33
2023-02-05T16:18:34.143Z,68.80
2023-02-05T16:21:28.095Z,68.83
2023-02-05T16:24:23.354Z,68.57
2023-02-05T16:27:02.865Z,68.39
2023-02-05T16:29:54.700Z,68.56
2023-02-05T16:32:39.631Z,68.74
2023-02-05T16:35:17.258Z,68.96
2023-02-05T16:37:43.788Z,69.15
2023-02-05T16:40:12.301Z,69.03
2023-02-05T16:42:43.774Z,68.74
2023-02-05T16:45:10.449Z,69.32
2023-02-05T16:47:38.893Z,69.70
2023-02-05T16:50:42.581Z,69.62
2023-02-05T16:53:19.244Z,70.32
2023-02-05T16:55:45.839Z,70.23
2023-02-05T16:58:23.176Z,70.71
2023-02-05T17:01:00.474Z,70.49
2023-02-05T17:03:38.913Z,70.32
2023-02-05T17:06:14.350Z,69.82
2023-02-05T17:08:42.406Z,69.79
2023-02-05T17:11:32.762Z,69.31
2023-02-05T17:14:32.605Z,69.92
2023-02-05T17:17:18.751Z,70.31
2023-02-05T17:20:09.891Z,68.60
2023-02-05T17:22:36.534Z,69.11
2023-02-05T17:25:05.452Z,68.36
2023-02-05T17:27:39.655Z,68.89
2023-02-05T17:30:14.258Z,69.17
2023-02-05T17:32:40.782Z,69.75
2023-02-05T17:35:19.326Z,69.40
2023-02-05T17:37:45.851Z,69.46
2023-02-05T17:40:13.063Z,69.08
2023-02-05T17:42:40.100Z,68.94
2023-02-05T17:45:26.956Z,69.05
2023-02-05T17:47:53.665Z,69.20
2023-02-05T17:50:20.577Z,68.64
2023-02-05T17:52:47.482Z,68.52
2023-02-05T17:55:18.240Z,68.77
2023-02-05T17:57:45.635Z,68.75
2023-02-05T18:00:26.024Z,68.59
2023-02-05T18:02:53.724Z,68.57
2023-02-05T18:05:20.761Z,68.64
2023-02-05T18:07:59.525Z,68.32
2023-02-05T18:10:31.028Z,68.87
2023-02-05T18:12:58.312Z,69.54
2023-02-05T18:15:26.519Z,69.91
2023-02-05T18:17:53.523Z,70.02
2023-02-05T18:20:21.245Z,69.90
2023-02-05T18:22:49.067Z,69.95
2023-02-05T18:25:16.033Z,69.67
2023-02-05T18:27:42.751Z,68.43
2023-02-05T18:30:10.339Z,68.65
2023-02-05T18:32:37.073Z,69.25
2023-02-05T18:35:03.997Z,69.22
2023-02-05T18:37:30.547Z,69.17
2023-02-05T18:39:57.014Z,69.04
2023-02-05T18:42:23.549Z,68.96
2023-02-05T18:44:50.025Z,69.47
2023-02-05T18:47:16.515Z,69.29
2023-02-05T18:49:42.992Z,68.74
2023-02-05T18:52:11.823Z,69.31
2023-02-05T18:54:38.305Z,69.33
2023-02-05T18:57:05.072Z,69.49
2023-02-05T18:59:31.959Z,70.53
2023-02-05T19:01:58.836Z,70.47
2023-02-05T19:04:26.821Z,69.86
2023-02-05T19:06:54.490Z,69.82
2023-02-05T19:09:23.857Z,69.16
2023-02-05T19:11:52.049Z,68.85
2023-02-05T19:14:22.034Z,68.81
2023-02-05T19:16:49.990Z,69.33
2023-02-05T19:19:20.940Z,69.22
2023-02-05T19:21:55.230Z,70.06
2023-02-05T19:24:22.843Z,69.71
2023-02-05T19:26:51.126Z,69.51
2023-02-05T19:29:20.281Z,70.44
2023-02-05T19:31:48.005Z,70.00
2023-02-05T19:34:16.056Z,68.86
2023-02-05T19:36:43.448Z,69.17
2023-02-05T19:39:14.121Z,69.25
2023-02-05T19:41:45.345Z,69.63
2023-02-05T19:44:11.924Z,69.13
2023-02-05T19:46:43.919Z,70.06
2023-02-05T19:49:20.453Z,69.81
2023-02-05T19:51:50.640Z,70.01
2023-02-05T19:54:21.143Z,69.65
2023-02-05T19:56:48.441Z,70.09
2023-02-05T19:59:16.715Z,69.19
2023-02-05T20:01:44.585Z,67.64
2023-02-05T20:04:17.448Z,67.90
2023-02-05T20:06:46.489Z,68.31
2023-02-05T20:09:15.181Z,68.65
2023-02-05T20:11:44.789Z,69.54
2023-02-05T20:14:12.438Z,69.30
2023-02-05T20:16:42.498Z,68.65
2023-02-05T20:19:15.817Z,68.96
2023-02-05T20:21:43.161Z,69.20
2023-02-05T20:24:10.671Z,70.48
2023-02-05T20:26:37.899Z,69.48
2023-02-05T20:29:23.232Z,69.69
2023-02-05T20:31:52.036Z,70.09
2023-02-05T20:34:23.485Z,70.67
2023-02-05T20:36:59.744Z,69.82
2023-02-05T20:39:28.865Z,69.39
2023-02-05T20:41:58.228Z,70.05
2023-02-05T20:44:28.312Z,70.50
2023-02-05T20:46:55.076Z,69.80
2023-02-05T20:49:22.485Z,69.62
2023-02-05T20:51:49.048Z,70.28
2023-02-05T20:54:15.640Z,70.33
2023-02-05T20:56:42.231Z,70.74
2023-02-05T20:59:11.534Z,71.01
2023-02-05T21:01:40.330Z,70.69
2023-02-05T21:04:09.312Z,70.58
2023-02-05T21:06:40.193Z,69.43
2023-02-05T21:09:09.398Z,69.77
2023-02-05T21:11:37.907Z,70.14
2023-02-05T21:14:05.755Z,69.95
2023-02-05T21:16:36.178Z,70.36
2023-02-05T21:19:06.045Z,69.58
2023-02-05T21:21:36.057Z,69.20
2023-02-05T21:24:11.271Z,68.06
2023-02-05T21:26:41.367Z,68.58
2023-02-05T21:29:11.601Z,68.85
2023-02-05T21:31:46.336Z,69.15
2023-02-05T21:34:18.733Z,69.27
2023-02-05T21:36:48.065Z,68.75
2023-02-05T21:39:16.072Z,67.60
2023-02-05T21:41:44.774Z,68.34
2023-02-05T21:44:11.791Z,68.12
2023-02-05T21:46:38.808Z,68.38
2023-02-05T21:49:05.588Z,66.90
2023-02-05T21:51:35.386Z,68.03
2023-02-05T21:54:05.178Z,69.20
2023-02-05T21:56:38.120Z,69.22
2023-02-05T21:59:05.666Z,69.32
2023-02-05T22:01:35.715Z,69.46
2023-02-05T22:04:07.115Z,69.15
2023-02-05T22:06:36.241Z,69.08
2023-02-05T22:09:06.597Z,68.88
2023-02-05T22:11:33.142Z,68.90
2023-02-05T22:13:59.672Z,68.90
2023-02-05T22:16:32.542Z,68.76
2023-02-05T22:19:00.974Z,66.72
2023-02-05T22:21:31.626Z,67.42
2023-02-05T22:24:01.288Z,67.87
2023-02-05T22:26:32.757Z,68.32
2023-02-05T22:29:01.391Z,68.78
2023-02-05T22:31:29.496Z,68.36
2023-02-05T22:33:57.288Z,68.05
2023-02-05T22:36:27.628Z,67.94
2023-02-05T22:38:55.747Z,66.67
2023-02-05T22:41:26.484Z,66.86
2023-02-05T22:43:58.420Z,67.57
2023-02-05T22:46:28.483Z,68.31
2023-02-05T22:48:57.433Z,67.04
2023-02-05T22:51:31.743Z,66.73
2023-02-05T22:53:59.452Z,67.23
2023-02-05T22:56:27.510Z,67.92
2023-02-05T22:58:55.441Z,67.63
2023-02-05T23:01:28.814Z,67.29
2023-02-05T23:03:57.198Z,67.66
2023-02-05T23:06:36.728Z,67.47
2023-02-05T23:09:15.102Z,67.60
2023-02-05T23:11:43.006Z,68.06
2023-02-05T23:14:12.738Z,68.57
2023-02-05T23:16:43.442Z,68.29
2023-02-05T23:19:16.577Z,68.29
2023-02-05T23:21:43.216Z,68.54
2023-02-05T23:24:10.691Z,68.66
2023-02-05T23:26:44.218Z,68.08
2023-02-05T23:29:13.787Z,68.03
2023-02-05T23:31:40.832Z,67.97
2023-02-05T23:34:07.374Z,67.66
2023-02-05T23:36:34.343Z,66.27
2023-02-05T23:39:01.227Z,66.90
2023-02-05T23:41:37.177Z,66.43
2023-02-05T23:44:15.859Z,66.55
2023-02-05T23:46:44.788Z,66.54
2023-02-05T23:49:12.514Z,66.65
2023-02-05T23:51:39.720Z,66.51
2023-02-05T23:54:08.417Z,66.43
2023-02-05T23:56:34.959Z,66.42
2023-02-05T23:59:02.054Z,66.68
